الصفحة الرئيسية
METAR-TAF:

METAR-TAF

مطار :

Mackay, أستراليا

دائرة عرض: 21-10-18S, خط طول: 149-10-47E, ارتفاع: 6 متر

مراقبة الطقس الحالي

تاريخ ووقت الإصدار 1ساعة و 18 دقيقة قبل الساعة 21:00UTC
رياح هادئة
درجة الحرارة 22°درجة مئوية
الرطوبة 94%
ضغط 1007 hPa
الرؤية 10 كم أو أكثر

METAR: YBMK 052100Z AUTO 00000KT 9999 // NCD 22/21 Q1007

زمن: 08:18 (22:18 UTC)


TAF: مفقودة

أرصاد الطقس والتوقعات من أكثر من 4000 مطار (تقارير الطقس للمطار METAR والتنبؤ بالطقس بالمطارTAF).

المحطات المتاحة هي النقط الصفراء والحمراء على الخريطة.

حرك المؤشر فوق النقطة لمعرفة اسم المحطة.

ثم انقر لمعرفة أرصاد وتوقعات الطقس.

لتغيير الخارطة: اضغط على الأزرار الخضراء مع رمز الصليب الأسود للتكبير. على الزر الأخضر مع شرطة للتصغير، أو على الأسهم الخضراء للخرائط المجاورة.


METAR-TAF: